EDT,Max TemperatureF,Mean TemperatureF,Min TemperatureF,Max Dew PointF,MeanDew PointF,Min DewpointF,Max Humidity, Mean Humidity, Min Humidity, Max Sea Level PressureIn, Mean Sea Level PressureIn, Min Sea Level PressureIn, Max VisibilityMiles, Mean VisibilityMiles, Min VisibilityMiles, Max Wind SpeedMPH, Mean Wind SpeedMPH, Max Gust SpeedMPH,PrecipitationIn, CloudCover, Events, WindDirDegrees
2013-6-1,84,75,68,65,63,60,90,67,47,30.14,30.05,29.98,10,10,10,13,6,20,0.00,1,,200
2013-6-2,78,72,66,70,65,63,94,86,66,30.00,29.95,29.89,10,7,0,10,6,,1.01,6,Fog-Rain,205
2013-6-3,82,74,66,67,65,61,100,85,50,29.95,29.90,29.80,10,8,0,6,2,,0.00,6,Fog,270
2013-6-4,79,72,64,65,63,60,94,76,56,30.10,30.02,29.93,10,9,4,12,5,,0.11,5,Rain,26
2013-6-5,73,68,64,65,64,61,100,87,73,30.14,30.05,29.96,10,6,0,9,4,,2.86,8,Fog-Rain-Thunderstorm,45
2013-6-6,75,70,66,70,67,64,100,88,78,30.02,29.88,29.76,10,8,1,9,5,20,1.41,7,Rain,190
2013-6-7,82,73,64,67,65,62,97,85,60,29.84,29.71,29.63,10,9,4,9,4,,0.28,6,Rain,342
2013-6-8,82,73,64,66,63,60,94,75,54,30.05,29.94,29.80,10,10,7,8,3,,0.00,5,Rain,231
2013-6-9,84,74,66,70,67,64,94,85,56,30.13,30.08,30.02,10,7,1,18,2,30,0.60,6,Rain-Thunderstorm,205
2013-6-10,77,72,68,70,67,63,94,86,64,30.11,29.99,29.85,10,8,1,22,7,30,0.62,6,Rain,202
2013-6-11,84,74,64,66,63,59,100,74,43,30.00,29.94,29.89,10,8,0,9,4,,0.04,2,Fog-Rain,288
2013-6-12,90,76,63,73,67,59,90,69,50,29.97,29.92,29.86,10,10,10,12,4,,0.00,0,,227
2013-6-13,91,80,69,71,65,61,87,68,44,29.84,29.74,29.65,10,9,0,33,7,55,0.31,3,Rain-Thunderstorm,265
2013-6-14,82,72,62,60,54,51,72,54,35,30.01,29.88,29.78,10,10,10,14,7,23,0.00,1,,331
2013-6-15,82,70,57,60,57,54,87,63,44,30.11,30.05,30.02,10,10,10,8,3,,0.00,1,,241
2013-6-16,84,74,64,64,61,58,84,64,46,30.09,30.03,29.98,10,10,10,12,5,20,0.00,0,,201
2013-6-17,84,74,66,70,67,64,100,83,60,30.06,29.99,29.91,10,8,0,21,4,33,0.68,5,Fog-Rain-Thunderstorm,212
2013-6-18,77,72,69,72,68,65,93,86,76,29.98,29.86,29.78,10,9,2,12,3,,0.18,7,Rain-Thunderstorm,225
2013-6-19,81,72,63,65,62,60,93,71,52,30.09,29.98,29.88,10,10,10,6,1,,0.00,1,,335
2013-6-20,81,72,64,65,64,61,94,78,54,30.27,30.18,30.09,10,8,2,7,2,,0.00,5,,63
2013-6-21,84,74,63,65,61,59,93,67,43,30.29,30.20,30.15,10,8,0,8,2,,0.00,1,,57
2013-6-22,86,72,60,64,61,57,90,67,41,30.21,30.16,30.09,10,10,9,7,3,,0.01,1,,30
2013-6-23,87,74,64,68,65,63,94,74,48,30.21,30.14,30.09,10,10,5,7,1,,0.00,2,Rain,227
2013-6-24,84,76,68,70,67,63,94,83,60,30.24,30.15,30.08,10,8,0,23,3,41,1.27,5,Fog-Rain-Thunderstorm,250
2013-6-25,87,75,66,71,67,65,100,86,58,30.17,30.10,29.98,10,6,0,8,1,,0.00,3,Fog-Rain,209
2013-6-26,87,76,66,70,67,64,97,81,57,30.06,29.96,29.89,10,9,1,9,2,,0.01,3,Rain-Thunderstorm,202
2013-6-27,87,77,68,71,68,65,100,84,59,29.98,29.84,29.71,10,7,0,10,2,,0.00,4,Fog-Rain,220
2013-6-28,91,80,69,70,67,64,94,71,41,29.74,29.66,29.58,10,9,5,14,4,22,0.06,2,Rain-Thunderstorm,279
2013-6-29,86,75,66,70,65,61,94,73,47,29.74,29.64,29.59,10,9,2,9,3,21,0.17,3,Rain-Thunderstorm,219
2013-6-30,82,75,68,70,67,64,96,83,56,29.87,29.75,29.66,10,8,2,9,2,,0.12,6,Rain,188